sensor_id;sensor_type;location;lat;lon;timestamp;pressure;altitude;pressure_sealevel;temperature;humidity
11676;BME280;5894;42.768;23.404;2022-07-29T00:00:30;95778.88;;;21.70;100.00
11676;BME280;5894;42.768;23.404;2022-07-29T00:02:56;95782.56;;;21.55;100.00
11676;BME280;5894;42.768;23.404;2022-07-29T00:05:25;95782.50;;;21.51;100.00
11676;BME280;5894;42.768;23.404;2022-07-29T00:07:52;95792.81;;;21.46;100.00
11676;BME280;5894;42.768;23.404;2022-07-29T00:10:19;95798.19;;;21.46;100.00
11676;BME280;5894;42.768;23.404;2022-07-29T00:12:46;95800.81;;;21.42;100.00
11676;BME280;5894;42.768;23.404;2022-07-29T00:15:12;95769.19;;;21.25;100.00
11676;BME280;5894;42.768;23.404;2022-07-29T00:17:40;95798.94;;;21.46;100.00
11676;BME280;5894;42.768;23.404;2022-07-29T00:20:08;95798.97;;;21.50;100.00
11676;BME280;5894;42.768;23.404;2022-07-29T00:22:38;95793.59;;;21.46;100.00
11676;BME280;5894;42.768;23.404;2022-07-29T00:25:06;95796.28;;;21.50;100.00
11676;BME280;5894;42.768;23.404;2022-07-29T00:27:34;95772.78;;;21.36;100.00
11676;BME280;5894;42.768;23.404;2022-07-29T00:30:02;95786.75;;;21.52;100.00
11676;BME280;5894;42.768;23.404;2022-07-29T00:32:30;95790.53;;;21.48;100.00
11676;BME280;5894;42.768;23.404;2022-07-29T00:34:56;95784.78;;;21.49;100.00
11676;BME280;5894;42.768;23.404;2022-07-29T00:37:42;95786.34;;;21.50;100.00
11676;BME280;5894;42.768;23.404;2022-07-29T00:40:10;95778.69;;;21.49;100.00
11676;BME280;5894;42.768;23.404;2022-07-29T00:42:43;95783.63;;;21.47;100.00
11676;BME280;5894;42.768;23.404;2022-07-29T00:45:10;95760.78;;;21.27;100.00
11676;BME280;5894;42.768;23.404;2022-07-29T00:47:38;95777.50;;;21.50;100.00
11676;BME280;5894;42.768;23.404;2022-07-29T00:50:08;95785.19;;;21.48;100.00
11676;BME280;5894;42.768;23.404;2022-07-29T00:52:37;95794.00;;;21.48;100.00
11676;BME280;5894;42.768;23.404;2022-07-29T00:55:08;95803.78;;;21.34;100.00
11676;BME280;5894;42.768;23.404;2022-07-29T00:57:36;95799.13;;;21.31;100.00
11676;BME280;5894;42.768;23.404;2022-07-29T01:00:04;95805.69;;;21.33;100.00
11676;BME280;5894;42.768;23.404;2022-07-29T01:02:33;95792.28;;;21.33;100.00
11676;BME280;5894;42.768;23.404;2022-07-29T01:05:01;95764.44;;;21.15;100.00
11676;BME280;5894;42.768;23.404;2022-07-29T01:07:28;95793.81;;;21.34;100.00
11676;BME280;5894;42.768;23.404;2022-07-29T01:09:56;95793.81;;;21.34;100.00
11676;BME280;5894;42.768;23.404;2022-07-29T01:12:26;95790.34;;;21.34;100.00
11676;BME280;5894;42.768;23.404;2022-07-29T01:14:54;95742.41;;;21.02;100.00
11676;BME280;5894;42.768;23.404;2022-07-29T01:17:26;95774.13;;;21.23;100.00
11676;BME280;5894;42.768;23.404;2022-07-29T01:19:59;95780.63;;;21.22;100.00
11676;BME280;5894;42.768;23.404;2022-07-29T01:22:36;95781.47;;;21.26;100.00
11676;BME280;5894;42.768;23.404;2022-07-29T01:28:39;95781.50;;;21.03;100.00
11676;BME280;5894;42.768;23.404;2022-07-29T01:31:10;95776.09;;;21.00;100.00
11676;BME280;5894;42.768;23.404;2022-07-29T01:33:41;95775.72;;;21.01;100.00
11676;BME280;5894;42.768;23.404;2022-07-29T01:36:20;95764.00;;;20.83;100.00
11676;BME280;5894;42.768;23.404;2022-07-29T01:38:54;95766.16;;;20.74;100.00
11676;BME280;5894;42.768;23.404;2022-07-29T01:41:25;95760.84;;;20.77;100.00
11676;BME280;5894;42.768;23.404;2022-07-29T01:43:59;95756.16;;;20.71;100.00
11676;BME280;5894;42.768;23.404;2022-07-29T01:46:31;95748.47;;;20.69;100.00
11676;BME280;5894;42.768;23.404;2022-07-29T01:49:04;95757.91;;;20.86;100.00
11676;BME280;5894;42.768;23.404;2022-07-29T01:51:38;95735.13;;;20.73;100.00
11676;BME280;5894;42.768;23.404;2022-07-29T01:54:10;95741.34;;;20.80;100.00
11676;BME280;5894;42.768;23.404;2022-07-29T01:56:40;95736.34;;;20.79;100.00
11676;BME280;5894;42.768;23.404;2022-07-29T01:59:10;95746.66;;;20.77;100.00
11676;BME280;5894;42.768;23.404;2022-07-29T02:01:39;95741.53;;;20.65;100.00
11676;BME280;5894;42.768;23.404;2022-07-29T02:04:10;95747.91;;;20.57;100.00
11676;BME280;5894;42.768;23.404;2022-07-29T02:06:38;95747.97;;;20.60;100.00
11676;BME280;5894;42.768;23.404;2022-07-29T02:09:08;95746.50;;;20.66;100.00
11676;BME280;5894;42.768;23.404;2022-07-29T02:11:37;95755.72;;;20.65;100.00
11676;BME280;5894;42.768;23.404;2022-07-29T02:14:05;95694.19;;;20.23;100.00
11676;BME280;5894;42.768;23.404;2022-07-29T02:16:37;95753.13;;;20.72;100.00
11676;BME280;5894;42.768;23.404;2022-07-29T02:19:06;95758.41;;;20.69;100.00
11676;BME280;5894;42.768;23.404;2022-07-29T02:21:35;95759.19;;;20.69;100.00
11676;BME280;5894;42.768;23.404;2022-07-29T02:24:03;95756.47;;;20.66;100.00
11676;BME280;5894;42.768;23.404;2022-07-29T02:26:32;95760.28;;;20.65;100.00
11676;BME280;5894;42.768;23.404;2022-07-29T02:29:01;95719.00;;;20.43;100.00
11676;BME280;5894;42.768;23.404;2022-07-29T02:31:31;95714.47;;;20.47;100.00
11676;BME280;5894;42.768;23.404;2022-07-29T02:34:01;95743.31;;;20.57;100.00
11676;BME280;5894;42.768;23.404;2022-07-29T02:36:29;95749.97;;;20.67;100.00
11676;BME280;5894;42.768;23.404;2022-07-29T02:38:57;95738.59;;;20.73;100.00
11676;BME280;5894;42.768;23.404;2022-07-29T02:41:30;95738.16;;;20.71;100.00
11676;BME280;5894;42.768;23.404;2022-07-29T02:44:03;95741.56;;;20.68;100.00
11676;BME280;5894;42.768;23.404;2022-07-29T02:46:34;95693.88;;;20.28;100.00
11676;BME280;5894;42.768;23.404;2022-07-29T02:49:11;95752.97;;;20.62;100.00
11676;BME280;5894;42.768;23.404;2022-07-29T02:51:43;95744.59;;;20.67;100.00
11676;BME280;5894;42.768;23.404;2022-07-29T02:54:21;95745.63;;;20.59;100.00
11676;BME280;5894;42.768;23.404;2022-07-29T02:56:51;95741.66;;;20.49;100.00
11676;BME280;5894;42.768;23.404;2022-07-29T02:59:23;95748.06;;;20.41;100.00
11676;BME280;5894;42.768;23.404;2022-07-29T03:01:55;95748.84;;;20.41;100.00
11676;BME280;5894;42.768;23.404;2022-07-29T03:04:24;95747.94;;;20.34;100.00
11676;BME280;5894;42.768;23.404;2022-07-29T03:06:54;95731.56;;;20.39;100.00
11676;BME280;5894;42.768;23.404;2022-07-29T03:09:22;95700.53;;;20.11;100.00
11676;BME280;5894;42.768;23.404;2022-07-29T03:11:49;95736.78;;;20.32;100.00
11676;BME280;5894;42.768;23.404;2022-07-29T03:14:17;95733.63;;;20.26;100.00
11676;BME280;5894;42.768;23.404;2022-07-29T03:16:45;95730.84;;;20.19;100.00
11676;BME280;5894;42.768;23.404;2022-07-29T03:19:13;95730.50;;;20.21;100.00
11676;BME280;5894;42.768;23.404;2022-07-29T03:21:41;95730.50;;;20.21;100.00
11676;BME280;5894;42.768;23.404;2022-07-29T03:24:08;95729.66;;;20.16;100.00
11676;BME280;5894;42.768;23.404;2022-07-29T03:26:35;95729.41;;;20.25;100.00
11676;BME280;5894;42.768;23.404;2022-07-29T03:29:02;95717.38;;;20.35;100.00
11676;BME280;5894;42.768;23.404;2022-07-29T03:31:29;95718.81;;;20.32;100.00
11676;BME280;5894;42.768;23.404;2022-07-29T03:33:55;95723.41;;;20.32;100.00
11676;BME280;5894;42.768;23.404;2022-07-29T03:36:22;95688.53;;;20.05;100.00
11676;BME280;5894;42.768;23.404;2022-07-29T03:38:52;95725.31;;;20.31;100.00
11676;BME280;5894;42.768;23.404;2022-07-29T03:41:20;95711.34;;;20.19;100.00
11676;BME280;5894;42.768;23.404;2022-07-29T03:43:49;95730.75;;;20.35;100.00
11676;BME280;5894;42.768;23.404;2022-07-29T03:46:20;95713.72;;;20.24;100.00
11676;BME280;5894;42.768;23.404;2022-07-29T03:48:50;95749.13;;;20.36;100.00
11676;BME280;5894;42.768;23.404;2022-07-29T03:51:19;95742.28;;;20.39;100.00
11676;BME280;5894;42.768;23.404;2022-07-29T03:53:46;95746.22;;;20.45;100.00
11676;BME280;5894;42.768;23.404;2022-07-29T03:56:15;95757.38;;;20.50;100.00
11676;BME280;5894;42.768;23.404;2022-07-29T03:58:44;95749.41;;;20.54;100.00
11676;BME280;5894;42.768;23.404;2022-07-29T04:01:11;95757.91;;;20.60;100.00
11676;BME280;5894;42.768;23.404;2022-07-29T04:03:39;95740.53;;;20.50;100.00
11676;BME280;5894;42.768;23.404;2022-07-29T04:06:07;95752.97;;;20.62;100.00
11676;BME280;5894;42.768;23.404;2022-07-29T04:08:34;95747.28;;;20.67;100.00
11676;BME280;5894;42.768;23.404;2022-07-29T04:11:01;95748.19;;;20.74;100.00
11676;BME280;5894;42.768;23.404;2022-07-29T04:13:30;95748.97;;;20.78;100.00
11676;BME280;5894;42.768;23.404;2022-07-29T04:15:57;95754.81;;;20.84;100.00
11676;BME280;5894;42.768;23.404;2022-07-29T04:18:24;95751.31;;;20.80;100.00
11676;BME280;5894;42.768;23.404;2022-07-29T04:20:51;95752.22;;;20.91;100.00
11676;BME280;5894;42.768;23.404;2022-07-29T04:23:17;95751.09;;;20.92;100.00
11676;BME280;5894;42.768;23.404;2022-07-29T04:25:44;95759.56;;;20.94;100.00
11676;BME280;5894;42.768;23.404;2022-07-29T04:28:11;95757.66;;;20.95;100.00
11676;BME280;5894;42.768;23.404;2022-07-29T04:30:39;95755.31;;;20.93;100.00
11676;BME280;5894;42.768;23.404;2022-07-29T04:33:07;95760.41;;;21.02;100.00
11676;BME280;5894;42.768;23.404;2022-07-29T04:35:36;95752.84;;;21.07;100.00
11676;BME280;5894;42.768;23.404;2022-07-29T04:38:04;95750.06;;;21.00;100.00
11676;BME280;5894;42.768;23.404;2022-07-29T04:40:31;95756.13;;;20.97;100.00
11676;BME280;5894;42.768;23.404;2022-07-29T04:42:59;95748.84;;;20.98;100.00
11676;BME280;5894;42.768;23.404;2022-07-29T04:45:26;95763.66;;;21.14;100.00
11676;BME280;5894;42.768;23.404;2022-07-29T04:47:55;95775.16;;;21.15;100.00
11676;BME280;5894;42.768;23.404;2022-07-29T04:50:22;95771.81;;;21.21;100.00
11676;BME280;5894;42.768;23.404;2022-07-29T04:52:49;95730.91;;;21.02;100.00
11676;BME280;5894;42.768;23.404;2022-07-29T04:55:16;95772.34;;;21.34;100.00
11676;BME280;5894;42.768;23.404;2022-07-29T04:57:42;95772.06;;;21.43;100.00
11676;BME280;5894;42.768;23.404;2022-07-29T05:00:10;95784.03;;;21.49;100.00
11676;BME280;5894;42.768;23.404;2022-07-29T05:02:38;95788.28;;;21.53;100.00
11676;BME280;5894;42.768;23.404;2022-07-29T05:05:07;95678.84;;;21.03;100.00
11676;BME280;5894;42.768;23.404;2022-07-29T05:07:34;95771.22;;;21.69;100.00
11676;BME280;5894;42.768;23.404;2022-07-29T05:10:01;95777.84;;;21.78;100.00
11676;BME280;5894;42.768;23.404;2022-07-29T05:12:27;95777.19;;;21.92;100.00
11676;BME280;5894;42.768;23.404;2022-07-29T05:14:54;95771.94;;;21.99;100.00
11676;BME280;5894;42.768;23.404;2022-07-29T05:17:21;95788.66;;;22.22;100.00
11676;BME280;5894;42.768;23.404;2022-07-29T05:19:48;95784.13;;;22.33;100.00
11676;BME280;5894;42.768;23.404;2022-07-29T05:22:18;95796.97;;;22.54;100.00
11676;BME280;5894;42.768;23.404;2022-07-29T05:24:45;95791.78;;;22.76;100.00
11676;BME280;5894;42.768;23.404;2022-07-29T05:27:12;95767.22;;;22.77;100.00
11676;BME280;5894;42.768;23.404;2022-07-29T05:29:39;95797.00;;;23.09;100.00
11676;BME280;5894;42.768;23.404;2022-07-29T05:32:06;95803.97;;;23.17;100.00
11676;BME280;5894;42.768;23.404;2022-07-29T05:34:33;95794.44;;;23.30;100.00
11676;BME280;5894;42.768;23.404;2022-07-29T05:36:59;95758.22;;;23.14;100.00
11676;BME280;5894;42.768;23.404;2022-07-29T05:39:28;95799.19;;;23.58;100.00
11676;BME280;5894;42.768;23.404;2022-07-29T05:41:54;95795.38;;;23.66;100.00
11676;BME280;5894;42.768;23.404;2022-07-29T05:44:21;95786.94;;;23.78;100.00
11676;BME280;5894;42.768;23.404;2022-07-29T05:46:48;95803.91;;;23.93;100.00
11676;BME280;5894;42.768;23.404;2022-07-29T05:49:15;95773.50;;;23.82;100.00
11676;BME280;5894;42.768;23.404;2022-07-29T05:51:42;95767.38;;;23.96;100.00
11676;BME280;5894;42.768;23.404;2022-07-29T05:54:09;95800.53;;;24.32;100.00
11676;BME280;5894;42.768;23.404;2022-07-29T05:56:37;95804.03;;;24.50;100.00
11676;BME280;5894;42.768;23.404;2022-07-29T05:59:04;95807.09;;;24.63;100.00
11676;BME280;5894;42.768;23.404;2022-07-29T06:01:30;95809.81;;;24.70;100.00
11676;BME280;5894;42.768;23.404;2022-07-29T06:03:57;95808.25;;;24.72;98.61
11676;BME280;5894;42.768;23.404;2022-07-29T06:06:24;95817.13;;;24.83;99.00
11676;BME280;5894;42.768;23.404;2022-07-29T06:08:51;95806.34;;;24.94;97.77
11676;BME280;5894;42.768;23.404;2022-07-29T06:11:18;95799.78;;;25.06;97.57
11676;BME280;5894;42.768;23.404;2022-07-29T06:13:46;95814.38;;;25.30;96.75
11676;BME280;5894;42.768;23.404;2022-07-29T06:16:13;95819.34;;;25.38;97.28
11676;BME280;5894;42.768;23.404;2022-07-29T06:18:40;95820.53;;;25.30;93.05
11676;BME280;5894;42.768;23.404;2022-07-29T06:21:08;95818.63;;;25.23;91.59
11676;BME280;5894;42.768;23.404;2022-07-29T06:23:36;95796.66;;;25.14;92.43
11676;BME280;5894;42.768;23.404;2022-07-29T06:26:04;95820.50;;;25.37;92.01
11676;BME280;5894;42.768;23.404;2022-07-29T06:28:31;95825.91;;;25.37;90.58
11676;BME280;5894;42.768;23.404;2022-07-29T06:30:59;95823.56;;;25.46;89.27
11676;BME280;5894;42.768;23.404;2022-07-29T06:33:26;95823.97;;;25.41;89.17
11676;BME280;5894;42.768;23.404;2022-07-29T06:35:53;95818.56;;;25.48;86.04
11676;BME280;5894;42.768;23.404;2022-07-29T06:38:20;95820.09;;;25.53;90.14
11676;BME280;5894;42.768;23.404;2022-07-29T06:40:47;95813.09;;;25.70;88.87
11676;BME280;5894;42.768;23.404;2022-07-29T06:43:28;95808.44;;;25.77;88.58
11676;BME280;5894;42.768;23.404;2022-07-29T06:45:59;95816.16;;;25.79;86.88
11676;BME280;5894;42.768;23.404;2022-07-29T06:48:27;95785.75;;;25.61;86.86
11676;BME280;5894;42.768;23.404;2022-07-29T06:50:54;95806.09;;;25.83;84.69
11676;BME280;5894;42.768;23.404;2022-07-29T06:53:21;95811.84;;;25.88;84.69
11676;BME280;5894;42.768;23.404;2022-07-29T06:55:48;95806.81;;;25.94;87.46
11676;BME280;5894;42.768;23.404;2022-07-29T06:58:16;95806.00;;;25.97;84.16
11676;BME280;5894;42.768;23.404;2022-07-29T07:00:54;95811.78;;;25.99;83.44
11676;BME280;5894;42.768;23.404;2022-07-29T07:03:22;95800.53;;;26.08;83.50
11676;BME280;5894;42.768;23.404;2022-07-29T07:05:49;95812.09;;;26.15;81.77
11676;BME280;5894;42.768;23.404;2022-07-29T07:08:16;95802.03;;;26.19;83.53
11676;BME280;5894;42.768;23.404;2022-07-29T07:10:44;95797.31;;;26.34;84.92
11676;BME280;5894;42.768;23.404;2022-07-29T07:13:12;95791.09;;;26.37;83.24
11676;BME280;5894;42.768;23.404;2022-07-29T07:15:39;95792.16;;;26.50;83.08
11676;BME280;5894;42.768;23.404;2022-07-29T07:18:06;95797.88;;;26.63;83.82
11676;BME280;5894;42.768;23.404;2022-07-29T07:20:35;95767.06;;;26.50;81.03
11676;BME280;5894;42.768;23.404;2022-07-29T07:23:02;95791.22;;;26.71;80.91
11676;BME280;5894;42.768;23.404;2022-07-29T07:25:30;95800.31;;;26.91;81.26
11676;BME280;5894;42.768;23.404;2022-07-29T07:27:57;95766.78;;;26.82;82.82
11676;BME280;5894;42.768;23.404;2022-07-29T07:30:24;95802.13;;;27.09;81.40
11676;BME280;5894;42.768;23.404;2022-07-29T07:32:50;95788.50;;;27.19;78.94
11676;BME280;5894;42.768;23.404;2022-07-29T07:35:17;95796.41;;;27.37;79.96
11676;BME280;5894;42.768;23.404;2022-07-29T07:37:46;95794.66;;;27.54;80.00
11676;BME280;5894;42.768;23.404;2022-07-29T07:40:13;95790.69;;;27.65;78.18
11676;BME280;5894;42.768;23.404;2022-07-29T07:42:40;95786.56;;;27.84;78.19
11676;BME280;5894;42.768;23.404;2022-07-29T07:45:08;95782.03;;;28.04;77.90
11676;BME280;5894;42.768;23.404;2022-07-29T07:47:35;95770.69;;;28.13;76.37
11676;BME280;5894;42.768;23.404;2022-07-29T07:50:03;95784.25;;;28.40;77.29
11676;BME280;5894;42.768;23.404;2022-07-29T07:52:30;95773.84;;;28.62;76.01
11676;BME280;5894;42.768;23.404;2022-07-29T07:54:58;95772.25;;;28.88;75.28
11676;BME280;5894;42.768;23.404;2022-07-29T07:57:25;95772.47;;;28.97;73.82
11676;BME280;5894;42.768;23.404;2022-07-29T07:59:52;95783.28;;;29.20;71.29
11676;BME280;5894;42.768;23.404;2022-07-29T08:02:19;95781.78;;;29.39;70.17
11676;BME280;5894;42.768;23.404;2022-07-29T08:04:46;95779.09;;;29.59;70.51
11676;BME280;5894;42.768;23.404;2022-07-29T08:07:12;95751.56;;;29.56;68.71
11676;BME280;5894;42.768;23.404;2022-07-29T08:09:40;95775.84;;;29.83;68.13
11676;BME280;5894;42.768;23.404;2022-07-29T08:12:08;95778.75;;;29.92;67.35
11676;BME280;5894;42.768;23.404;2022-07-29T08:14:35;95760.16;;;29.71;67.41
11676;BME280;5894;42.768;23.404;2022-07-29T08:17:05;95774.06;;;30.13;66.63
11676;BME280;5894;42.768;23.404;2022-07-29T08:19:32;95770.59;;;30.28;65.09
11676;BME280;5894;42.768;23.404;2022-07-29T08:21:58;95772.13;;;30.46;64.09
11676;BME280;5894;42.768;23.404;2022-07-29T08:24:25;95766.19;;;30.51;63.49
11676;BME280;5894;42.768;23.404;2022-07-29T08:27:10;95771.56;;;30.71;64.56
11676;BME280;5894;42.768;23.404;2022-07-29T08:29:38;95747.22;;;30.63;62.25
11676;BME280;5894;42.768;23.404;2022-07-29T08:32:05;95729.50;;;30.88;62.40
11676;BME280;5894;42.768;23.404;2022-07-29T08:34:32;95757.09;;;31.19;62.06
11676;BME280;5894;42.768;23.404;2022-07-29T08:36:59;95732.19;;;31.04;61.40
11676;BME280;5894;42.768;23.404;2022-07-29T08:39:26;95764.94;;;31.46;60.91
11676;BME280;5894;42.768;23.404;2022-07-29T08:41:53;95760.91;;;31.50;60.89
11676;BME280;5894;42.768;23.404;2022-07-29T08:51:45;95757.28;;;31.41;59.89
11676;BME280;5894;42.768;23.404;2022-07-29T08:54:16;95758.94;;;31.51;59.09
11676;BME280;5894;42.768;23.404;2022-07-29T08:56:45;95738.41;;;31.33;60.43
11676;BME280;5894;42.768;23.404;2022-07-29T08:59:14;95759.41;;;31.62;60.00
11676;BME280;5894;42.768;23.404;2022-07-29T09:01:43;95758.44;;;31.68;60.39
11676;BME280;5894;42.768;23.404;2022-07-29T09:04:11;95759.63;;;31.55;57.21
11676;BME280;5894;42.768;23.404;2022-07-29T09:06:44;95758.94;;;31.51;58.28
11676;BME280;5894;42.768;23.404;2022-07-29T09:09:13;95752.94;;;31.43;57.13
11676;BME280;5894;42.768;23.404;2022-07-29T09:11:41;95742.00;;;31.30;59.04
11676;BME280;5894;42.768;23.404;2022-07-29T09:14:08;95733.25;;;31.07;58.49
11676;BME280;5894;42.768;23.404;2022-07-29T09:16:53;95741.44;;;31.07;58.09
11676;BME280;5894;42.768;23.404;2022-07-29T09:19:22;95740.78;;;31.02;59.55
11676;BME280;5894;42.768;23.404;2022-07-29T09:21:49;95744.13;;;30.94;58.27
11676;BME280;5894;42.768;23.404;2022-07-29T09:24:35;95714.41;;;30.71;58.11
11676;BME280;5894;42.768;23.404;2022-07-29T09:27:08;95736.66;;;30.82;59.67
11676;BME280;5894;42.768;23.404;2022-07-29T09:29:35;95738.91;;;30.71;57.95
11676;BME280;5894;42.768;23.404;2022-07-29T09:32:06;95711.25;;;30.40;59.12
11676;BME280;5894;42.768;23.404;2022-07-29T09:34:34;95742.81;;;30.53;59.62
11676;BME280;5894;42.768;23.404;2022-07-29T09:37:02;95736.41;;;30.44;56.50
11676;BME280;5894;42.768;23.404;2022-07-29T09:39:33;95700.03;;;30.05;57.40
11676;BME280;5894;42.768;23.404;2022-07-29T09:42:04;95741.94;;;30.40;56.10
11676;BME280;5894;42.768;23.404;2022-07-29T09:44:42;95735.59;;;30.31;55.71
11676;BME280;5894;42.768;23.404;2022-07-29T09:47:10;95722.81;;;30.27;57.20
11676;BME280;5894;42.768;23.404;2022-07-29T09:49:50;95731.41;;;30.26;57.40
11676;BME280;5894;42.768;23.404;2022-07-29T09:52:18;95717.63;;;30.17;56.79
11676;BME280;5894;42.768;23.404;2022-07-29T09:54:46;95723.06;;;30.17;56.00
11676;BME280;5894;42.768;23.404;2022-07-29T09:57:24;95695.13;;;30.00;55.22
11676;BME280;5894;42.768;23.404;2022-07-29T09:59:58;95706.81;;;30.13;55.65
11676;BME280;5894;42.768;23.404;2022-07-29T10:02:29;95675.78;;;29.94;54.58
11676;BME280;5894;42.768;23.404;2022-07-29T10:04:57;95714.06;;;30.20;54.70
11676;BME280;5894;42.768;23.404;2022-07-29T10:07:24;95708.88;;;30.25;54.86
11676;BME280;5894;42.768;23.404;2022-07-29T10:09:55;95701.72;;;30.15;54.64
11676;BME280;5894;42.768;23.404;2022-07-29T10:12:22;95704.28;;;30.22;54.98
11676;BME280;5894;42.768;23.404;2022-07-29T10:14:50;95706.22;;;30.22;53.59
11676;BME280;5894;42.768;23.404;2022-07-29T10:17:18;95704.88;;;30.14;54.40
11676;BME280;5894;42.768;23.404;2022-07-29T10:19:45;95697.91;;;30.13;53.40
11676;BME280;5894;42.768;23.404;2022-07-29T10:22:14;95690.25;;;30.08;52.49
11676;BME280;5894;42.768;23.404;2022-07-29T10:24:41;95694.88;;;30.11;53.07
11676;BME280;5894;42.768;23.404;2022-07-29T10:27:09;95682.59;;;30.03;52.10
11676;BME280;5894;42.768;23.404;2022-07-29T10:29:36;95671.81;;;29.99;52.18
11676;BME280;5894;42.768;23.404;2022-07-29T10:32:22;95682.00;;;30.11;53.15
11676;BME280;5894;42.768;23.404;2022-07-29T10:35:18;95683.13;;;30.14;53.39
11676;BME280;5894;42.768;23.404;2022-07-29T10:38:08;95686.78;;;30.07;52.38
11676;BME280;5894;42.768;23.404;2022-07-29T10:40:44;95678.19;;;30.09;53.37
11676;BME280;5894;42.768;23.404;2022-07-29T10:43:36;95670.03;;;30.09;53.95
11676;BME280;5894;42.768;23.404;2022-07-29T10:46:04;95667.56;;;30.14;53.66
11676;BME280;5894;42.768;23.404;2022-07-29T10:48:32;95674.47;;;30.19;51.17
11676;BME280;5894;42.768;23.404;2022-07-29T10:51:00;95663.03;;;30.24;49.93
11676;BME280;5894;42.768;23.404;2022-07-29T10:53:46;95658.38;;;30.24;51.75
11676;BME280;5894;42.768;23.404;2022-07-29T10:56:26;95659.06;;;30.28;52.45
11676;BME280;5894;42.768;23.404;2022-07-29T10:59:25;95653.63;;;30.28;54.40
11676;BME280;5894;42.768;23.404;2022-07-29T11:01:53;95622.69;;;30.06;56.00
11676;BME280;5894;42.768;23.404;2022-07-29T11:07:25;95595.94;;;30.05;55.40
11676;BME280;5894;42.768;23.404;2022-07-29T11:10:19;95650.44;;;30.46;55.66
11676;BME280;5894;42.768;23.404;2022-07-29T11:12:47;95644.16;;;30.49;54.37
11676;BME280;5894;42.768;23.404;2022-07-29T11:15:17;95637.69;;;30.43;56.44
11676;BME280;5894;42.768;23.404;2022-07-29T11:18:06;95638.78;;;30.46;55.19
11676;BME280;5894;42.768;23.404;2022-07-29T11:20:36;95633.00;;;30.44;56.88
11676;BME280;5894;42.768;23.404;2022-07-29T11:23:18;95617.09;;;30.42;55.07
11676;BME280;5894;42.768;23.404;2022-07-29T11:26:16;95627.66;;;30.56;55.74
11676;BME280;5894;42.768;23.404;2022-07-29T11:28:54;95630.03;;;30.54;54.06
11676;BME280;5894;42.768;23.404;2022-07-29T11:31:35;95628.13;;;30.68;53.80
11676;BME280;5894;42.768;23.404;2022-07-29T11:34:23;95624.13;;;30.72;54.05
11676;BME280;5894;42.768;23.404;2022-07-29T11:37:18;95622.59;;;30.71;56.13
11676;BME280;5894;42.768;23.404;2022-07-29T11:39:47;95630.13;;;30.80;55.80
11676;BME280;5894;42.768;23.404;2022-07-29T11:42:45;95593.88;;;30.54;55.13
11676;BME280;5894;42.768;23.404;2022-07-29T11:45:14;95620.06;;;30.93;54.84
11676;BME280;5894;42.768;23.404;2022-07-29T11:47:47;95619.50;;;30.98;53.01
11676;BME280;5894;42.768;23.404;2022-07-29T11:50:17;95623.66;;;31.02;53.58
11676;BME280;5894;42.768;23.404;2022-07-29T11:52:45;95586.91;;;30.94;53.45
11676;BME280;5894;42.768;23.404;2022-07-29T11:55:14;95618.72;;;31.14;52.67
11676;BME280;5894;42.768;23.404;2022-07-29T11:57:46;95609.47;;;31.24;52.97
11676;BME280;5894;42.768;23.404;2022-07-29T12:00:25;95614.03;;;31.27;53.28
11676;BME280;5894;42.768;23.404;2022-07-29T12:02:54;95581.66;;;31.16;52.27
11676;BME280;5894;42.768;23.404;2022-07-29T12:05:30;95610.22;;;31.37;52.48
11676;BME280;5894;42.768;23.404;2022-07-29T12:08:07;95602.28;;;31.43;51.34
11676;BME280;5894;42.768;23.404;2022-07-29T12:10:35;95608.25;;;31.50;50.88
11676;BME280;5894;42.768;23.404;2022-07-29T12:13:02;95601.19;;;31.53;51.08
11676;BME280;5894;42.768;23.404;2022-07-29T12:15:28;95606.06;;;31.58;50.15
11676;BME280;5894;42.768;23.404;2022-07-29T12:17:57;95603.47;;;31.67;50.95
11676;BME280;5894;42.768;23.404;2022-07-29T12:20:25;95604.38;;;31.77;50.64
11676;BME280;5894;42.768;23.404;2022-07-29T12:22:52;95603.13;;;31.90;50.63
11676;BME280;5894;42.768;23.404;2022-07-29T12:25:22;95592.19;;;32.03;50.06
11676;BME280;5894;42.768;23.404;2022-07-29T12:28:00;95592.19;;;32.16;50.65
11676;BME280;5894;42.768;23.404;2022-07-29T12:30:39;95590.81;;;32.33;48.71
11676;BME280;5894;42.768;23.404;2022-07-29T12:33:16;95597.97;;;32.52;49.55
11676;BME280;5894;42.768;23.404;2022-07-29T12:35:46;95582.34;;;32.53;49.62
11676;BME280;5894;42.768;23.404;2022-07-29T12:38:13;95576.94;;;32.62;48.59
11676;BME280;5894;42.768;23.404;2022-07-29T12:40:42;95578.16;;;33.04;48.71
11676;BME280;5894;42.768;23.404;2022-07-29T12:43:10;95577.56;;;33.31;46.42
11676;BME280;5894;42.768;23.404;2022-07-29T12:45:38;95575.22;;;33.51;46.26
11676;BME280;5894;42.768;23.404;2022-07-29T12:48:05;95568.13;;;33.63;45.91
11676;BME280;5894;42.768;23.404;2022-07-29T12:50:36;95571.06;;;33.78;45.67
11676;BME280;5894;42.768;23.404;2022-07-29T12:53:10;95563.31;;;33.85;44.21
11676;BME280;5894;42.768;23.404;2022-07-29T12:55:44;95558.63;;;33.95;44.38
11676;BME280;5894;42.768;23.404;2022-07-29T12:58:25;95564.72;;;34.17;44.64
11676;BME280;5894;42.768;23.404;2022-07-29T13:01:03;95553.31;;;34.10;43.83
11676;BME280;5894;42.768;23.404;2022-07-29T13:03:42;95554.53;;;34.18;43.82
11676;BME280;5894;42.768;23.404;2022-07-29T13:06:28;95551.69;;;34.31;43.47
11676;BME280;5894;42.768;23.404;2022-07-29T13:09:00;95521.84;;;34.23;43.50
11676;BME280;5894;42.768;23.404;2022-07-29T13:11:28;95525.22;;;34.28;43.70
11676;BME280;5894;42.768;23.404;2022-07-29T13:13:55;95534.03;;;34.41;43.66
11676;BME280;5894;42.768;23.404;2022-07-29T13:16:22;95532.97;;;34.47;43.46
11676;BME280;5894;42.768;23.404;2022-07-29T13:19:03;95525.66;;;34.53;43.56
11676;BME280;5894;42.768;23.404;2022-07-29T13:21:31;95523.84;;;34.50;42.18
11676;BME280;5894;42.768;23.404;2022-07-29T13:23:58;95529.75;;;34.58;43.22